createdAt,value
2018-10-18T00:00:49.250Z,50.03
2018-10-18T00:03:16.521Z,47.23
2018-10-18T00:05:43.657Z,43.67
2018-10-18T00:08:10.844Z,44.67
2018-10-18T00:10:38.103Z,42.63
2018-10-18T00:13:05.276Z,40.27
2018-10-18T00:15:32.466Z,44.70
2018-10-18T00:17:59.682Z,50.33
2018-10-18T00:20:26.853Z,47.97
2018-10-18T00:22:54.009Z,43.93
2018-10-18T00:25:21.397Z,43.40
2018-10-18T00:27:48.571Z,42.77
2018-10-18T00:30:15.964Z,41.90
2018-10-18T00:32:43.950Z,40.67
2018-10-18T00:35:11.488Z,40.73
2018-10-18T00:37:39.052Z,40.37
2018-10-18T00:40:06.954Z,41.60
2018-10-18T00:42:34.140Z,46.30
2018-10-18T00:45:01.302Z,44.40
2018-10-18T00:47:28.495Z,45.43
2018-10-18T00:49:55.702Z,45.80
2018-10-18T00:52:23.890Z,41.47
2018-10-18T00:54:51.164Z,46.73
2018-10-18T00:57:18.356Z,43.33
2018-10-18T00:59:45.520Z,40.67
2018-10-18T01:02:12.891Z,41.80
2018-10-18T01:04:40.018Z,44.37
2018-10-18T01:07:07.190Z,45.90
2018-10-18T01:09:34.474Z,48.00
2018-10-18T01:12:01.675Z,48.63
2018-10-18T01:14:28.839Z,45.43
2018-10-18T01:17:01.891Z,43.57
2018-10-18T01:19:29.402Z,49.77
2018-10-18T01:21:56.552Z,48.10
2018-10-18T01:24:23.817Z,47.77
2018-10-18T01:26:51.019Z,44.37
2018-10-18T01:29:18.187Z,47.03
2018-10-18T01:31:45.514Z,43.60
2018-10-18T01:34:13.006Z,45.93
2018-10-18T01:36:40.167Z,48.03
2018-10-18T01:39:07.635Z,49.80
2018-10-18T01:41:34.805Z,48.07
2018-10-18T01:44:02.021Z,42.00
2018-10-18T01:46:29.226Z,48.57
2018-10-18T01:48:56.381Z,52.23
2018-10-18T01:51:23.529Z,45.63
2018-10-18T01:53:50.737Z,44.80
2018-10-18T01:56:17.902Z,46.43
2018-10-18T01:58:45.042Z,48.20
2018-10-18T02:01:12.834Z,42.63
2018-10-18T02:03:39.985Z,41.70
2018-10-18T02:06:07.368Z,46.67
2018-10-18T02:08:39.938Z,41.07
2018-10-18T02:11:07.442Z,41.67
2018-10-18T02:13:34.675Z,44.30
2018-10-18T02:16:01.869Z,41.67
2018-10-18T02:18:29.025Z,40.57
2018-10-18T02:20:56.255Z,43.97
2018-10-18T02:23:23.557Z,48.37
2018-10-18T02:25:50.745Z,49.13
2018-10-18T02:28:17.901Z,45.57
2018-10-18T02:30:45.106Z,48.37
2018-10-18T02:33:12.272Z,48.23
2018-10-18T02:35:39.437Z,50.27
2018-10-18T02:38:06.821Z,54.40
2018-10-18T02:40:34.541Z,50.73
2018-10-18T02:43:01.727Z,51.17
2018-10-18T02:45:29.316Z,54.23
2018-10-18T02:47:56.479Z,52.40
2018-10-18T02:50:23.675Z,48.13
2018-10-18T02:52:51.056Z,43.83
2018-10-18T02:55:18.205Z,42.47
2018-10-18T02:57:45.383Z,44.97
2018-10-18T03:00:12.661Z,48.67
2018-10-18T03:02:39.815Z,50.80
2018-10-18T03:05:07.133Z,54.07
2018-10-18T03:07:34.350Z,49.47
2018-10-18T03:10:01.578Z,51.93
2018-10-18T03:12:28.787Z,44.23
2018-10-18T03:14:56.084Z,42.40
2018-10-18T03:17:23.261Z,45.03
2018-10-18T03:19:50.871Z,44.57
2018-10-18T03:22:18.120Z,48.03
2018-10-18T03:24:45.301Z,52.73
2018-10-18T03:27:12.465Z,42.70
2018-10-18T03:29:39.669Z,43.33
2018-10-18T03:32:06.914Z,48.17
2018-10-18T03:34:34.085Z,50.30
2018-10-18T03:37:01.382Z,46.90
2018-10-18T03:39:28.581Z,52.00
2018-10-18T03:41:55.834Z,47.53
2018-10-18T03:44:23.854Z,45.30
2018-10-18T03:46:51.025Z,48.97
2018-10-18T03:49:18.205Z,48.73
2018-10-18T03:51:45.505Z,44.37
2018-10-18T03:54:12.737Z,47.50
2018-10-18T03:56:39.842Z,45.20
2018-10-18T03:59:07.470Z,46.77
2018-10-18T04:01:34.682Z,46.87
2018-10-18T04:04:01.865Z,48.67
2018-10-18T04:06:29.064Z,45.83
2018-10-18T04:08:56.216Z,42.20
2018-10-18T04:11:23.419Z,40.40
2018-10-18T04:13:50.666Z,43.57
2018-10-18T04:16:17.898Z,47.47
2018-10-18T04:18:45.046Z,42.83
2018-10-18T04:21:12.374Z,40.20
2018-10-18T04:23:39.562Z,40.97
2018-10-18T04:26:06.726Z,38.93
2018-10-18T04:28:33.943Z,41.50
2018-10-18T04:31:02.315Z,47.47
2018-10-18T04:33:29.541Z,40.57
2018-10-18T04:35:56.832Z,46.90
2018-10-18T04:38:24.013Z,46.50
2018-10-18T04:40:51.239Z,50.53
2018-10-18T04:43:18.532Z,53.27
2018-10-18T04:45:45.701Z,43.00
2018-10-18T04:48:13.293Z,44.43
2018-10-18T04:50:40.665Z,46.27
2018-10-18T04:53:08.009Z,43.27
2018-10-18T04:55:35.198Z,43.27
2018-10-18T04:58:02.434Z,40.33
2018-10-18T05:00:29.648Z,46.97
2018-10-18T05:02:56.953Z,53.27
2018-10-18T05:05:36.623Z,45.00
2018-10-18T05:08:03.902Z,46.83
2018-10-18T05:10:31.089Z,61.03
2018-10-18T05:12:58.366Z,52.27
2018-10-18T05:15:25.616Z,54.40
2018-10-18T05:17:52.836Z,44.97
2018-10-18T05:20:20.126Z,48.00
2018-10-18T05:22:47.314Z,43.03
2018-10-18T05:25:14.544Z,44.50
2018-10-18T05:27:41.796Z,46.27
2018-10-18T05:30:09.000Z,46.83
2018-10-18T05:32:36.127Z,44.67
2018-10-18T05:35:03.280Z,45.73
2018-10-18T05:37:30.447Z,49.57
2018-10-18T05:39:57.545Z,51.80
2018-10-18T05:42:24.679Z,52.00
2018-10-18T05:44:51.831Z,49.47
2018-10-18T05:47:19.298Z,46.40
2018-10-18T05:49:46.421Z,48.00
2018-10-18T05:52:13.508Z,43.03
2018-10-18T05:54:40.613Z,42.77
2018-10-18T05:57:07.783Z,37.93
2018-10-18T05:59:34.877Z,39.27
2018-10-18T06:02:01.972Z,45.37
2018-10-18T06:04:29.168Z,60.00
2018-10-18T06:06:56.656Z,41.30
2018-10-18T06:09:28.096Z,39.40
2018-10-18T06:11:55.262Z,41.13
2018-10-18T06:14:22.462Z,43.50
2018-10-18T06:16:49.572Z,42.60
2018-10-18T06:19:16.834Z,46.63
2018-10-18T06:21:44.371Z,46.07
2018-10-18T06:24:11.484Z,49.17
2018-10-18T06:26:38.651Z,54.87
2018-10-18T06:29:05.802Z,56.57
2018-10-18T06:31:32.905Z,50.73
2018-10-18T06:34:00.034Z,58.43
2018-10-18T06:36:27.143Z,65.17
2018-10-18T06:38:54.247Z,62.57
2018-10-18T06:41:21.444Z,51.53
2018-10-18T06:43:48.544Z,47.67
2018-10-18T06:46:15.703Z,46.30
2018-10-18T06:48:42.944Z,48.83
2018-10-18T06:51:10.483Z,46.23
2018-10-18T06:53:37.911Z,48.83
2018-10-18T06:56:05.096Z,53.63
2018-10-18T06:58:32.194Z,60.37
2018-10-18T07:00:59.295Z,60.43
2018-10-18T07:03:26.434Z,60.87
2018-10-18T07:05:53.530Z,60.37
2018-10-18T07:08:20.600Z,59.67
2018-10-18T07:10:47.804Z,64.67
2018-10-18T07:13:14.951Z,60.03
2018-10-18T07:15:42.034Z,69.83
2018-10-18T07:18:09.195Z,79.07
2018-10-18T07:20:36.263Z,76.63
2018-10-18T07:23:03.403Z,80.93
2018-10-18T07:25:30.604Z,76.73
2018-10-18T07:27:57.712Z,67.70
2018-10-18T07:30:24.792Z,64.80
2018-10-18T07:32:51.960Z,58.17
2018-10-18T07:35:19.100Z,64.43
2018-10-18T07:37:46.189Z,60.93
2018-10-18T07:40:14.627Z,60.27
2018-10-18T07:42:41.745Z,58.40
2018-10-18T07:45:09.490Z,56.60
2018-10-18T07:47:36.692Z,53.70
2018-10-18T07:50:04.113Z,52.57
2018-10-18T07:52:31.215Z,51.20
2018-10-18T07:54:58.357Z,53.40
2018-10-18T07:57:25.463Z,51.30
2018-10-18T07:59:52.587Z,50.23
2018-10-18T08:02:19.739Z,50.57
2018-10-18T08:04:46.833Z,51.00
2018-10-18T08:07:14.049Z,54.57
2018-10-18T08:09:41.179Z,57.07
2018-10-18T08:12:08.269Z,62.97
2018-10-18T08:14:35.366Z,63.27
2018-10-18T08:17:02.595Z,62.63
2018-10-18T08:19:29.640Z,64.30
2018-10-18T08:21:56.756Z,67.90
2018-10-18T08:24:24.112Z,74.00
2018-10-18T08:26:51.196Z,75.40
2018-10-18T08:29:18.346Z,76.97
2018-10-18T08:31:45.711Z,81.37
2018-10-18T08:34:12.897Z,72.77
2018-10-18T08:36:40.061Z,76.73
2018-10-18T08:39:08.770Z,74.53
2018-10-18T08:41:35.984Z,72.73
2018-10-18T08:44:03.205Z,71.80
2018-10-18T08:46:30.433Z,72.07
2018-10-18T08:48:57.660Z,71.80
2018-10-18T08:51:24.799Z,78.00
2018-10-18T08:53:51.975Z,70.23
2018-10-18T08:56:19.172Z,72.27
2018-10-18T08:58:46.313Z,70.60
2018-10-18T09:01:13.620Z,70.20
2018-10-18T09:03:40.714Z,69.37
2018-10-18T09:06:07.861Z,67.30
2018-10-18T09:08:35.062Z,66.97
2018-10-18T09:11:02.221Z,67.73
2018-10-18T09:13:29.347Z,65.20
2018-10-18T09:15:56.649Z,63.97
2018-10-18T09:18:23.769Z,65.07
2018-10-18T09:20:50.924Z,64.10
2018-10-18T09:23:18.097Z,61.97
2018-10-18T09:25:45.227Z,62.27
2018-10-18T09:28:12.383Z,61.57
2018-10-18T09:30:39.580Z,63.57
2018-10-18T09:33:06.820Z,62.10
2018-10-18T09:35:33.967Z,61.07
2018-10-18T09:38:01.216Z,63.23
2018-10-18T09:40:28.365Z,59.53
2018-10-18T09:42:58.553Z,63.13
2018-10-18T09:45:26.000Z,60.63
2018-10-18T09:47:53.124Z,60.50
2018-10-18T09:50:20.353Z,59.93
2018-10-18T09:52:47.558Z,59.00
2018-10-18T09:55:14.765Z,55.97
2018-10-18T09:57:41.908Z,56.37
2018-10-18T10:00:14.804Z,57.77
2018-10-18T10:02:47.581Z,53.07
2018-10-18T10:05:14.865Z,54.03
2018-10-18T10:07:42.010Z,53.37
2018-10-18T10:10:09.193Z,52.23
2018-10-18T10:12:36.362Z,52.73
2018-10-18T10:15:04.247Z,53.13
2018-10-18T10:17:31.451Z,52.17
2018-10-18T10:19:58.613Z,51.20
2018-10-18T10:22:25.758Z,49.57
2018-10-18T10:24:52.944Z,49.30
2018-10-18T10:27:20.148Z,48.07
2018-10-18T10:29:47.292Z,45.70
2018-10-18T10:32:14.460Z,45.80
2018-10-18T10:34:41.664Z,45.63
2018-10-18T10:37:08.857Z,46.33
2018-10-18T10:39:36.030Z,45.30
2018-10-18T10:42:03.326Z,46.43
2018-10-18T10:44:30.508Z,45.97
2018-10-18T10:46:57.645Z,43.03
2018-10-18T10:49:24.933Z,44.07
2018-10-18T10:51:52.182Z,44.53
2018-10-18T10:54:19.353Z,44.60
2018-10-18T10:56:46.554Z,45.77
2018-10-18T10:59:15.684Z,45.23
2018-10-18T11:01:42.799Z,43.67
2018-10-18T11:04:10.037Z,47.00
2018-10-18T11:06:37.218Z,48.43
2018-10-18T11:09:06.544Z,47.57
2018-10-18T11:11:33.783Z,44.40
2018-10-18T11:14:00.929Z,45.03
2018-10-18T11:16:28.050Z,47.67
2018-10-18T11:18:55.290Z,44.80
2018-10-18T11:21:22.466Z,45.87
2018-10-18T11:23:49.585Z,45.30
2018-10-18T11:26:16.810Z,44.80
2018-10-18T11:28:43.884Z,46.47
2018-10-18T11:31:11.021Z,46.50
2018-10-18T11:33:38.320Z,45.90
2018-10-18T11:36:05.502Z,44.57
2018-10-18T11:38:33.137Z,45.10
2018-10-18T11:41:00.583Z,47.60
2018-10-18T11:43:27.764Z,47.20
2018-10-18T11:45:55.553Z,47.50
2018-10-18T11:48:22.882Z,46.77
2018-10-18T11:50:50.015Z,50.00
2018-10-18T11:53:17.190Z,45.57
2018-10-18T11:55:44.400Z,44.63
2018-10-18T11:58:12.175Z,48.03
2018-10-18T12:00:39.532Z,48.67
2018-10-18T12:03:06.722Z,48.67
2018-10-18T12:05:33.862Z,48.73
2018-10-18T12:08:01.066Z,46.70
2018-10-18T12:10:28.233Z,49.33
2018-10-18T12:12:55.349Z,52.87
2018-10-18T12:15:22.534Z,50.53
2018-10-18T12:17:49.714Z,50.77
2018-10-18T12:20:17.443Z,47.67
2018-10-18T12:22:44.573Z,51.80
2018-10-18T12:25:12.398Z,52.90
2018-10-18T12:27:39.615Z,51.20
2018-10-18T12:30:07.409Z,51.00
2018-10-18T12:32:34.726Z,52.60
2018-10-18T12:35:01.883Z,55.17
2018-10-18T12:37:29.006Z,53.77
2018-10-18T12:39:56.258Z,55.20
2018-10-18T12:42:23.448Z,52.57
2018-10-18T12:44:50.689Z,55.70
2018-10-18T12:47:17.868Z,53.90
2018-10-18T12:49:44.987Z,56.07
2018-10-18T12:52:13.352Z,50.17
2018-10-18T12:54:40.735Z,57.17
2018-10-18T12:57:09.513Z,58.53
2018-10-18T12:59:36.737Z,57.07
2018-10-18T13:02:04.048Z,56.97
2018-10-18T13:04:31.141Z,57.07
2018-10-18T13:06:58.469Z,61.13
2018-10-18T13:09:26.284Z,53.77
2018-10-18T13:11:53.503Z,57.57
2018-10-18T13:14:20.596Z,54.50
2018-10-18T13:16:47.837Z,56.67
2018-10-18T13:19:15.003Z,60.47
2018-10-18T13:21:42.158Z,53.80
2018-10-18T13:24:09.364Z,55.20
2018-10-18T13:26:36.983Z,58.27
2018-10-18T13:29:04.486Z,53.60
2018-10-18T13:31:31.767Z,51.90
2018-10-18T13:33:58.928Z,52.23
2018-10-18T13:36:26.054Z,55.20
2018-10-18T13:38:53.386Z,56.00
2018-10-18T13:41:20.500Z,58.73
2018-10-18T13:43:47.628Z,55.40
2018-10-18T13:46:14.851Z,61.40
2018-10-18T13:48:42.092Z,61.07
2018-10-18T13:51:09.295Z,58.07
2018-10-18T13:53:39.405Z,57.67
2018-10-18T13:56:06.775Z,63.37
2018-10-18T13:58:33.853Z,63.17
2018-10-18T14:01:01.026Z,63.57
2018-10-18T14:03:28.194Z,70.60
2018-10-18T14:05:55.342Z,65.70
2018-10-18T14:08:22.665Z,72.63
2018-10-18T14:10:49.757Z,71.60
2018-10-18T14:13:16.872Z,75.43
2018-10-18T14:15:44.073Z,73.80
2018-10-18T14:18:11.350Z,78.87
2018-10-18T14:20:38.497Z,72.47
2018-10-18T14:23:05.709Z,72.37
2018-10-18T14:25:32.962Z,69.70
2018-10-18T14:28:00.120Z,71.43
2018-10-18T14:30:28.532Z,70.43
2018-10-18T14:32:55.629Z,73.17
2018-10-18T14:35:22.805Z,75.93
2018-10-18T14:37:49.992Z,69.43
2018-10-18T14:40:17.145Z,68.30
2018-10-18T14:42:44.298Z,67.20
2018-10-18T14:45:11.560Z,71.73
2018-10-18T14:47:38.843Z,71.73
2018-10-18T14:50:07.802Z,67.90
2018-10-18T14:52:35.021Z,69.07
2018-10-18T14:55:02.166Z,69.43
2018-10-18T14:57:29.445Z,72.27
2018-10-18T15:00:03.630Z,69.10
2018-10-18T15:02:30.821Z,67.23
2018-10-18T15:04:58.146Z,78.63
2018-10-18T15:07:25.353Z,67.70
2018-10-18T15:09:52.562Z,71.73
2018-10-18T15:12:19.705Z,68.97
2018-10-18T15:14:46.976Z,69.27
2018-10-18T15:17:14.196Z,69.40
2018-10-18T15:19:41.349Z,68.77
2018-10-18T15:22:08.553Z,63.60
2018-10-18T15:24:35.680Z,64.37
2018-10-18T15:27:02.980Z,67.33
2018-10-18T15:29:30.033Z,70.70
2018-10-18T15:31:57.264Z,70.50
2018-10-18T15:34:24.348Z,64.03
2018-10-18T15:36:51.536Z,71.20
2018-10-18T15:39:18.893Z,71.67
2018-10-18T15:41:45.904Z,68.70
2018-10-18T15:44:13.263Z,74.27
2018-10-18T15:46:40.368Z,65.77
2018-10-18T15:49:07.968Z,75.53
2018-10-18T15:51:35.648Z,61.80
2018-10-18T15:54:02.856Z,76.97
2018-10-18T15:56:30.049Z,69.70
2018-10-18T15:58:57.398Z,66.40
2018-10-18T16:01:24.542Z,74.80
2018-10-18T16:03:51.681Z,73.73
2018-10-18T16:06:18.944Z,71.03
2018-10-18T16:08:46.203Z,70.20
2018-10-18T16:11:13.404Z,71.60
2018-10-18T16:13:40.533Z,72.57
2018-10-18T16:16:07.923Z,72.80
2018-10-18T16:18:35.086Z,65.93
2018-10-18T16:21:02.425Z,64.50
2018-10-18T16:23:29.579Z,67.17
2018-10-18T16:25:56.820Z,65.43
2018-10-18T16:28:23.935Z,65.23
2018-10-18T16:30:51.085Z,64.13
2018-10-18T16:33:18.474Z,65.00
2018-10-18T16:35:45.683Z,63.83
2018-10-18T16:38:12.900Z,64.23
2018-10-18T16:40:40.225Z,61.23
2018-10-18T16:43:07.657Z,66.43
2018-10-18T16:45:34.861Z,62.73
2018-10-18T16:48:02.487Z,66.47
2018-10-18T16:50:29.740Z,68.90
2018-10-18T16:52:56.963Z,67.53
2018-10-18T16:55:24.172Z,67.20
2018-10-18T16:57:51.449Z,60.90
2018-10-18T17:00:19.109Z,65.70
2018-10-18T17:02:46.582Z,67.07
2018-10-18T17:05:13.840Z,68.40
2018-10-18T17:07:40.987Z,66.70
2018-10-18T17:10:08.251Z,65.17
2018-10-18T17:12:35.365Z,67.27
2018-10-18T17:15:02.545Z,67.27
2018-10-18T17:17:30.566Z,67.23
2018-10-18T17:19:57.843Z,71.60
2018-10-18T17:22:24.979Z,71.97
2018-10-18T17:24:52.256Z,71.77
2018-10-18T17:27:20.043Z,79.07
2018-10-18T17:29:47.213Z,80.93
2018-10-18T17:32:15.004Z,82.97
2018-10-18T17:34:42.277Z,83.20
2018-10-18T17:37:09.491Z,91.23
2018-10-18T17:39:36.622Z,96.03
2018-10-18T17:42:04.149Z,102.47
2018-10-18T17:44:31.330Z,100.47
2018-10-18T17:46:58.516Z,93.33
2018-10-18T17:49:25.796Z,106.37
2018-10-18T17:51:53.064Z,96.60
2018-10-18T17:54:20.331Z,111.70
2018-10-18T17:56:47.557Z,100.93
2018-10-18T17:59:14.791Z,112.57
2018-10-18T18:01:42.082Z,95.17
2018-10-18T18:04:09.318Z,93.17
2018-10-18T18:06:36.588Z,88.53
2018-10-18T18:09:04.634Z,72.53
2018-10-18T18:11:31.882Z,68.37
2018-10-18T18:13:59.056Z,60.30
2018-10-18T18:16:26.344Z,44.63
2018-10-18T18:18:53.523Z,37.40
2018-10-18T18:21:20.658Z,35.37
2018-10-18T18:23:47.774Z,41.20
2018-10-18T18:26:15.057Z,40.10
2018-10-18T18:28:42.223Z,33.17
2018-10-18T18:31:09.410Z,47.27
2018-10-18T18:33:36.631Z,50.93
2018-10-18T18:36:04.161Z,57.00
2018-10-18T18:38:31.308Z,57.53
2018-10-18T18:40:58.490Z,56.27
2018-10-18T18:43:25.657Z,56.30
2018-10-18T18:45:53.834Z,65.77
2018-10-18T18:48:21.132Z,55.53
2018-10-18T18:50:48.380Z,59.53
2018-10-18T18:53:15.532Z,55.53
2018-10-18T18:55:42.719Z,53.77
2018-10-18T18:58:09.896Z,52.80
2018-10-18T19:00:37.058Z,50.37
2018-10-18T19:03:04.928Z,44.23
2018-10-18T19:05:31.985Z,48.43
2018-10-18T19:07:59.136Z,48.53
2018-10-18T19:10:26.324Z,49.20
2018-10-18T19:12:53.457Z,39.57
2018-10-18T19:15:20.705Z,40.77
2018-10-18T19:17:47.908Z,43.10
2018-10-18T19:20:15.068Z,38.10
2018-10-18T19:22:42.307Z,37.63
2018-10-18T19:25:09.549Z,42.57
2018-10-18T19:27:37.389Z,40.67
2018-10-18T19:30:06.376Z,34.93
2018-10-18T19:32:33.560Z,38.13
2018-10-18T19:35:01.378Z,37.90
2018-10-18T19:37:28.543Z,36.63
2018-10-18T19:39:55.914Z,34.93
2018-10-18T19:42:24.975Z,33.77
2018-10-18T19:44:52.454Z,36.27
2018-10-18T19:47:19.740Z,29.17
2018-10-18T19:49:46.905Z,33.13
2018-10-18T19:52:14.124Z,30.00
2018-10-18T19:54:42.509Z,28.70
2018-10-18T19:57:09.851Z,26.20
2018-10-18T19:59:37.920Z,26.43
2018-10-18T20:02:05.886Z,25.40
2018-10-18T20:04:34.117Z,24.17
2018-10-18T20:07:01.241Z,23.80
2018-10-18T20:09:28.538Z,20.77
2018-10-18T20:11:58.173Z,20.97
2018-10-18T20:14:26.330Z,21.43
2018-10-18T20:16:53.929Z,16.67
2018-10-18T20:19:21.073Z,20.03
2018-10-18T20:21:48.217Z,16.63
2018-10-18T20:24:15.438Z,19.27
2018-10-18T20:26:42.612Z,19.30
2018-10-18T20:29:09.835Z,17.07
2018-10-18T20:31:37.070Z,14.50
2018-10-18T20:34:04.585Z,18.23
2018-10-18T20:36:31.744Z,16.70
2018-10-18T20:38:59.011Z,15.07
2018-10-18T20:41:26.797Z,14.10
2018-10-18T20:43:54.144Z,12.33
2018-10-18T20:46:21.487Z,15.43
2018-10-18T20:48:48.620Z,12.50
2018-10-18T20:51:17.290Z,13.57
2018-10-18T20:53:44.548Z,17.90
2018-10-18T20:56:11.673Z,12.83
2018-10-18T20:58:39.181Z,13.50
2018-10-18T21:01:06.538Z,13.27
2018-10-18T21:03:33.676Z,11.73
2018-10-18T21:06:01.001Z,13.27
2018-10-18T21:08:28.636Z,13.60
2018-10-18T21:10:56.069Z,12.03
2018-10-18T21:13:23.340Z,10.87
2018-10-18T21:15:50.612Z,11.90
2018-10-18T21:18:17.761Z,15.83
2018-10-18T21:20:44.913Z,11.37
2018-10-18T21:23:12.247Z,9.97
2018-10-18T21:25:39.352Z,9.40
2018-10-18T21:28:06.498Z,9.40
2018-10-18T21:30:33.769Z,9.47
2018-10-18T21:33:00.978Z,10.20
2018-10-18T21:35:28.153Z,11.67
2018-10-18T21:37:55.314Z,14.43
2018-10-18T21:40:22.445Z,11.57
2018-10-18T21:42:49.591Z,9.90
2018-10-18T21:45:17.218Z,10.23
2018-10-18T21:47:44.329Z,10.50
2018-10-18T21:50:11.448Z,7.63
2018-10-18T21:52:38.611Z,11.47
2018-10-18T21:55:06.711Z,9.30
2018-10-18T21:57:33.885Z,8.60
2018-10-18T22:00:01.098Z,11.43
2018-10-18T22:02:28.227Z,12.87
2018-10-18T22:04:55.475Z,9.67
2018-10-18T22:07:22.872Z,10.80
2018-10-18T22:09:50.000Z,8.63
2018-10-18T22:12:17.166Z,9.97
2018-10-18T22:14:44.433Z,8.10
2018-10-18T22:17:11.700Z,4.83
2018-10-18T22:19:38.834Z,10.00
2018-10-18T22:22:06.100Z,8.10
2018-10-18T22:24:33.232Z,11.77
2018-10-18T22:27:00.479Z,9.23
2018-10-18T22:29:27.640Z,6.93
2018-10-18T22:31:54.779Z,8.63
2018-10-18T22:34:21.905Z,7.60
2018-10-18T22:36:49.238Z,9.47
2018-10-18T22:39:17.321Z,10.53
2018-10-18T22:41:44.452Z,5.20
2018-10-18T22:44:11.655Z,7.73
2018-10-18T22:46:38.798Z,7.17
2018-10-18T22:49:05.916Z,6.60
2018-10-18T22:51:33.105Z,5.70
2018-10-18T22:54:00.261Z,6.67
2018-10-18T22:56:27.432Z,8.03
2018-10-18T22:58:54.664Z,8.90
2018-10-18T23:01:21.781Z,5.67
2018-10-18T23:03:48.917Z,6.93
2018-10-18T23:06:16.115Z,5.63
2018-10-18T23:08:43.314Z,7.73
2018-10-18T23:11:10.493Z,8.23
2018-10-18T23:13:37.757Z,10.13
2018-10-18T23:16:04.946Z,7.30
2018-10-18T23:18:32.094Z,4.37
2018-10-18T23:20:59.313Z,9.43
2018-10-18T23:23:26.434Z,4.63
2018-10-18T23:25:53.568Z,5.33
2018-10-18T23:28:20.768Z,5.70
2018-10-18T23:30:47.909Z,5.53
2018-10-18T23:33:15.045Z,8.63
2018-10-18T23:35:42.224Z,8.40
2018-10-18T23:38:09.359Z,6.73
2018-10-18T23:40:36.473Z,9.43
2018-10-18T23:43:03.703Z,7.70
2018-10-18T23:45:30.827Z,4.90
2018-10-18T23:47:57.970Z,6.00
2018-10-18T23:50:25.164Z,8.93
2018-10-18T23:52:52.324Z,6.00
2018-10-18T23:55:19.476Z,5.70
2018-10-18T23:57:46.667Z,8.57
